sensor_id;sensor_type;location;lat;lon;timestamp;P1;durP1;ratioP1;P2;durP2;ratioP2
67227;SDS011;54139;42.616;23.748;2023-10-19T00:00:55;36.95;;;33.20;;
67227;SDS011;54139;42.616;23.748;2023-10-19T00:03:21;32.63;;;29.30;;
67227;SDS011;54139;42.616;23.748;2023-10-19T00:05:48;26.85;;;24.23;;
67227;SDS011;54139;42.616;23.748;2023-10-19T00:08:14;27.00;;;24.20;;
67227;SDS011;54139;42.616;23.748;2023-10-19T00:10:50;27.48;;;24.52;;
67227;SDS011;54139;42.616;23.748;2023-10-19T00:13:32;27.15;;;24.40;;
67227;SDS011;54139;42.616;23.748;2023-10-19T00:16:01;28.95;;;25.30;;
67227;SDS011;54139;42.616;23.748;2023-10-19T00:18:32;32.35;;;29.08;;
67227;SDS011;54139;42.616;23.748;2023-10-19T00:21:00;26.95;;;24.27;;
67227;SDS011;54139;42.616;23.748;2023-10-19T00:23:36;31.38;;;27.50;;
67227;SDS011;54139;42.616;23.748;2023-10-19T00:26:02;28.15;;;25.35;;
67227;SDS011;54139;42.616;23.748;2023-10-19T00:28:33;29.23;;;26.50;;
67227;SDS011;54139;42.616;23.748;2023-10-19T00:31:01;29.13;;;26.33;;
67227;SDS011;54139;42.616;23.748;2023-10-19T00:33:32;25.70;;;23.27;;
67227;SDS011;54139;42.616;23.748;2023-10-19T00:36:05;34.15;;;30.33;;
67227;SDS011;54139;42.616;23.748;2023-10-19T00:38:41;33.47;;;29.95;;
67227;SDS011;54139;42.616;23.748;2023-10-19T00:41:17;29.35;;;26.55;;
67227;SDS011;54139;42.616;23.748;2023-10-19T00:43:56;28.30;;;25.63;;
67227;SDS011;54139;42.616;23.748;2023-10-19T00:46:28;27.40;;;24.55;;
67227;SDS011;54139;42.616;23.748;2023-10-19T00:49:03;32.38;;;28.88;;
67227;SDS011;54139;42.616;23.748;2023-10-19T00:52:07;32.35;;;28.80;;
67227;SDS011;54139;42.616;23.748;2023-10-19T00:54:36;27.52;;;24.83;;
67227;SDS011;54139;42.616;23.748;2023-10-19T00:57:15;26.90;;;23.88;;
67227;SDS011;54139;42.616;23.748;2023-10-19T00:59:45;28.15;;;25.25;;
67227;SDS011;54139;42.616;23.748;2023-10-19T01:02:14;28.23;;;25.42;;
67227;SDS011;54139;42.616;23.748;2023-10-19T01:04:50;27.33;;;24.52;;
67227;SDS011;54139;42.616;23.748;2023-10-19T01:07:30;26.10;;;23.30;;
67227;SDS011;54139;42.616;23.748;2023-10-19T01:10:00;29.52;;;25.05;;
67227;SDS011;54139;42.616;23.748;2023-10-19T01:12:29;26.52;;;23.08;;
67227;SDS011;54139;42.616;23.748;2023-10-19T01:17:43;28.67;;;25.45;;
67227;SDS011;54139;42.616;23.748;2023-10-19T01:20:12;26.98;;;24.20;;
67227;SDS011;54139;42.616;23.748;2023-10-19T01:22:51;25.10;;;22.55;;
67227;SDS011;54139;42.616;23.748;2023-10-19T01:28:42;26.05;;;23.27;;
67227;SDS011;54139;42.616;23.748;2023-10-19T01:31:17;28.10;;;25.25;;
67227;SDS011;54139;42.616;23.748;2023-10-19T01:33:54;28.20;;;23.58;;
67227;SDS011;54139;42.616;23.748;2023-10-19T01:36:24;23.60;;;21.27;;
67227;SDS011;54139;42.616;23.748;2023-10-19T01:38:51;25.77;;;23.27;;
67227;SDS011;54139;42.616;23.748;2023-10-19T01:41:19;27.85;;;23.77;;
67227;SDS011;54139;42.616;23.748;2023-10-19T01:43:46;26.30;;;22.67;;
67227;SDS011;54139;42.616;23.748;2023-10-19T01:46:13;24.95;;;22.63;;
67227;SDS011;54139;42.616;23.748;2023-10-19T01:48:47;25.60;;;23.10;;
67227;SDS011;54139;42.616;23.748;2023-10-19T01:51:14;30.35;;;27.27;;
67227;SDS011;54139;42.616;23.748;2023-10-19T01:53:40;32.45;;;28.98;;
67227;SDS011;54139;42.616;23.748;2023-10-19T01:56:09;27.48;;;24.80;;
67227;SDS011;54139;42.616;23.748;2023-10-19T01:58:39;22.55;;;20.35;;
67227;SDS011;54139;42.616;23.748;2023-10-19T02:01:06;26.75;;;23.90;;
67227;SDS011;54139;42.616;23.748;2023-10-19T02:03:38;33.40;;;28.48;;
67227;SDS011;54139;42.616;23.748;2023-10-19T02:06:12;42.53;;;36.60;;
67227;SDS011;54139;42.616;23.748;2023-10-19T02:08:52;39.40;;;32.45;;
67227;SDS011;54139;42.616;23.748;2023-10-19T02:11:26;32.55;;;29.17;;
67227;SDS011;54139;42.616;23.748;2023-10-19T02:13:56;34.10;;;30.10;;
67227;SDS011;54139;42.616;23.748;2023-10-19T02:16:25;34.42;;;30.70;;
67227;SDS011;54139;42.616;23.748;2023-10-19T02:18:53;41.88;;;37.33;;
67227;SDS011;54139;42.616;23.748;2023-10-19T02:21:18;32.63;;;29.13;;
67227;SDS011;54139;42.616;23.748;2023-10-19T02:23:47;30.73;;;27.33;;
67227;SDS011;54139;42.616;23.748;2023-10-19T02:26:16;35.53;;;31.13;;
67227;SDS011;54139;42.616;23.748;2023-10-19T02:28:55;37.45;;;32.90;;
67227;SDS011;54139;42.616;23.748;2023-10-19T02:31:22;36.10;;;31.30;;
67227;SDS011;54139;42.616;23.748;2023-10-19T02:33:48;33.63;;;29.58;;
67227;SDS011;54139;42.616;23.748;2023-10-19T02:36:18;35.45;;;31.45;;
67227;SDS011;54139;42.616;23.748;2023-10-19T02:38:47;35.53;;;30.33;;
67227;SDS011;54139;42.616;23.748;2023-10-19T02:41:17;37.35;;;32.47;;
67227;SDS011;54139;42.616;23.748;2023-10-19T02:43:42;40.97;;;33.95;;
67227;SDS011;54139;42.616;23.748;2023-10-19T02:46:26;33.92;;;30.15;;
67227;SDS011;54139;42.616;23.748;2023-10-19T02:48:52;39.70;;;33.33;;
67227;SDS011;54139;42.616;23.748;2023-10-19T02:51:17;36.33;;;31.58;;
67227;SDS011;54139;42.616;23.748;2023-10-19T02:53:44;32.92;;;29.35;;
67227;SDS011;54139;42.616;23.748;2023-10-19T02:56:13;31.60;;;28.30;;
67227;SDS011;54139;42.616;23.748;2023-10-19T02:58:44;37.70;;;31.25;;
67227;SDS011;54139;42.616;23.748;2023-10-19T03:01:18;36.50;;;29.63;;
67227;SDS011;54139;42.616;23.748;2023-10-19T03:03:48;36.38;;;30.00;;
67227;SDS011;54139;42.616;23.748;2023-10-19T03:06:19;34.33;;;30.05;;
67227;SDS011;54139;42.616;23.748;2023-10-19T03:08:46;31.85;;;27.45;;
67227;SDS011;54139;42.616;23.748;2023-10-19T03:11:13;30.83;;;26.52;;
67227;SDS011;54139;42.616;23.748;2023-10-19T03:13:39;31.90;;;28.33;;
67227;SDS011;54139;42.616;23.748;2023-10-19T03:16:06;35.95;;;31.58;;
67227;SDS011;54139;42.616;23.748;2023-10-19T03:18:35;38.10;;;33.72;;
67227;SDS011;54139;42.616;23.748;2023-10-19T03:21:01;34.53;;;30.77;;
67227;SDS011;54139;42.616;23.748;2023-10-19T03:23:27;181.93;;;91.85;;
67227;SDS011;54139;42.616;23.748;2023-10-19T03:25:56;138.15;;;74.57;;
67227;SDS011;54139;42.616;23.748;2023-10-19T03:28:40;116.93;;;69.72;;
67227;SDS011;54139;42.616;23.748;2023-10-19T03:31:06;78.35;;;49.08;;
67227;SDS011;54139;42.616;23.748;2023-10-19T03:33:33;53.95;;;38.40;;
67227;SDS011;54139;42.616;23.748;2023-10-19T03:36:01;77.60;;;55.10;;
67227;SDS011;54139;42.616;23.748;2023-10-19T03:38:28;45.97;;;36.50;;
67227;SDS011;54139;42.616;23.748;2023-10-19T03:40:56;41.50;;;33.65;;
67227;SDS011;54139;42.616;23.748;2023-10-19T03:43:27;58.33;;;45.35;;
67227;SDS011;54139;42.616;23.748;2023-10-19T03:45:52;43.25;;;38.55;;
67227;SDS011;54139;42.616;23.748;2023-10-19T03:48:19;46.35;;;40.50;;
67227;SDS011;54139;42.616;23.748;2023-10-19T03:50:51;39.85;;;34.20;;
67227;SDS011;54139;42.616;23.748;2023-10-19T03:53:19;39.38;;;35.28;;
67227;SDS011;54139;42.616;23.748;2023-10-19T03:55:46;42.17;;;35.10;;
67227;SDS011;54139;42.616;23.748;2023-10-19T03:58:12;41.47;;;33.17;;
67227;SDS011;54139;42.616;23.748;2023-10-19T04:00:37;33.42;;;29.20;;
67227;SDS011;54139;42.616;23.748;2023-10-19T04:03:03;37.05;;;30.35;;
67227;SDS011;54139;42.616;23.748;2023-10-19T04:05:35;30.83;;;27.55;;
67227;SDS011;54139;42.616;23.748;2023-10-19T04:08:04;30.30;;;27.23;;
67227;SDS011;54139;42.616;23.748;2023-10-19T04:10:39;36.20;;;30.27;;
67227;SDS011;54139;42.616;23.748;2023-10-19T04:13:09;35.88;;;30.48;;
67227;SDS011;54139;42.616;23.748;2023-10-19T04:15:35;33.05;;;29.48;;
67227;SDS011;54139;42.616;23.748;2023-10-19T04:18:01;28.67;;;25.58;;
67227;SDS011;54139;42.616;23.748;2023-10-19T04:20:33;43.17;;;34.22;;
67227;SDS011;54139;42.616;23.748;2023-10-19T04:23:17;37.60;;;30.42;;
67227;SDS011;54139;42.616;23.748;2023-10-19T04:25:43;33.50;;;28.88;;
67227;SDS011;54139;42.616;23.748;2023-10-19T04:28:11;29.35;;;26.35;;
67227;SDS011;54139;42.616;23.748;2023-10-19T04:30:38;39.08;;;25.85;;
67227;SDS011;54139;42.616;23.748;2023-10-19T04:33:04;34.05;;;27.65;;
67227;SDS011;54139;42.616;23.748;2023-10-19T04:35:34;31.52;;;27.48;;
67227;SDS011;54139;42.616;23.748;2023-10-19T04:38:00;33.22;;;29.05;;
67227;SDS011;54139;42.616;23.748;2023-10-19T04:40:26;30.77;;;26.88;;
67227;SDS011;54139;42.616;23.748;2023-10-19T04:42:52;35.75;;;27.38;;
67227;SDS011;54139;42.616;23.748;2023-10-19T04:45:18;40.13;;;32.78;;
67227;SDS011;54139;42.616;23.748;2023-10-19T04:47:44;68.28;;;44.58;;
67227;SDS011;54139;42.616;23.748;2023-10-19T04:50:11;93.00;;;57.28;;
67227;SDS011;54139;42.616;23.748;2023-10-19T04:52:37;86.28;;;51.88;;
67227;SDS011;54139;42.616;23.748;2023-10-19T04:55:04;121.22;;;71.00;;
67227;SDS011;54139;42.616;23.748;2023-10-19T04:57:30;164.93;;;81.40;;
67227;SDS011;54139;42.616;23.748;2023-10-19T04:59:56;118.20;;;67.03;;
67227;SDS011;54139;42.616;23.748;2023-10-19T05:02:23;104.68;;;59.15;;
67227;SDS011;54139;42.616;23.748;2023-10-19T05:04:49;136.02;;;76.25;;
67227;SDS011;54139;42.616;23.748;2023-10-19T05:07:14;65.82;;;47.03;;
67227;SDS011;54139;42.616;23.748;2023-10-19T05:09:42;46.53;;;34.63;;
67227;SDS011;54139;42.616;23.748;2023-10-19T05:12:08;41.10;;;33.90;;
67227;SDS011;54139;42.616;23.748;2023-10-19T05:14:38;43.55;;;35.65;;
67227;SDS011;54139;42.616;23.748;2023-10-19T05:17:07;26.80;;;24.05;;
67227;SDS011;54139;42.616;23.748;2023-10-19T05:19:34;27.10;;;23.40;;
67227;SDS011;54139;42.616;23.748;2023-10-19T05:22:00;32.60;;;26.88;;
67227;SDS011;54139;42.616;23.748;2023-10-19T05:24:27;36.60;;;28.58;;
67227;SDS011;54139;42.616;23.748;2023-10-19T05:26:53;37.05;;;29.85;;
67227;SDS011;54139;42.616;23.748;2023-10-19T05:29:20;32.53;;;26.35;;
67227;SDS011;54139;42.616;23.748;2023-10-19T05:31:45;27.92;;;25.02;;
67227;SDS011;54139;42.616;23.748;2023-10-19T05:34:11;26.58;;;23.98;;
67227;SDS011;54139;42.616;23.748;2023-10-19T05:36:36;29.45;;;23.52;;
67227;SDS011;54139;42.616;23.748;2023-10-19T05:39:02;25.08;;;22.52;;
67227;SDS011;54139;42.616;23.748;2023-10-19T05:41:30;31.38;;;26.60;;
67227;SDS011;54139;42.616;23.748;2023-10-19T05:43:57;28.52;;;25.65;;
67227;SDS011;54139;42.616;23.748;2023-10-19T05:46:22;30.75;;;27.45;;
67227;SDS011;54139;42.616;23.748;2023-10-19T05:48:50;28.15;;;25.02;;
67227;SDS011;54139;42.616;23.748;2023-10-19T05:51:16;25.60;;;23.13;;
67227;SDS011;54139;42.616;23.748;2023-10-19T05:53:42;22.70;;;20.17;;
67227;SDS011;54139;42.616;23.748;2023-10-19T05:56:09;24.73;;;22.30;;
67227;SDS011;54139;42.616;23.748;2023-10-19T05:58:36;24.23;;;21.52;;
67227;SDS011;54139;42.616;23.748;2023-10-19T06:01:01;21.83;;;19.63;;
67227;SDS011;54139;42.616;23.748;2023-10-19T06:03:27;34.67;;;30.90;;
67227;SDS011;54139;42.616;23.748;2023-10-19T06:05:53;26.52;;;23.20;;
67227;SDS011;54139;42.616;23.748;2023-10-19T06:08:21;28.73;;;25.75;;
67227;SDS011;54139;42.616;23.748;2023-10-19T06:10:51;26.38;;;23.77;;
67227;SDS011;54139;42.616;23.748;2023-10-19T06:13:17;24.33;;;22.02;;
67227;SDS011;54139;42.616;23.748;2023-10-19T06:15:43;25.67;;;23.08;;
67227;SDS011;54139;42.616;23.748;2023-10-19T06:18:09;26.77;;;24.25;;
67227;SDS011;54139;42.616;23.748;2023-10-19T06:20:35;26.17;;;23.60;;
67227;SDS011;54139;42.616;23.748;2023-10-19T06:23:01;25.50;;;23.05;;
67227;SDS011;54139;42.616;23.748;2023-10-19T06:25:31;24.20;;;21.90;;
67227;SDS011;54139;42.616;23.748;2023-10-19T06:27:57;23.23;;;20.83;;
67227;SDS011;54139;42.616;23.748;2023-10-19T06:30:23;22.55;;;20.45;;
67227;SDS011;54139;42.616;23.748;2023-10-19T06:32:59;17.50;;;16.00;;
67227;SDS011;54139;42.616;23.748;2023-10-19T06:35:25;15.20;;;13.90;;
67227;SDS011;54139;42.616;23.748;2023-10-19T06:37:52;18.13;;;16.52;;
67227;SDS011;54139;42.616;23.748;2023-10-19T06:40:18;18.67;;;17.08;;
67227;SDS011;54139;42.616;23.748;2023-10-19T06:42:44;15.75;;;14.45;;
67227;SDS011;54139;42.616;23.748;2023-10-19T06:45:12;15.95;;;14.65;;
67227;SDS011;54139;42.616;23.748;2023-10-19T06:47:45;15.80;;;14.35;;
67227;SDS011;54139;42.616;23.748;2023-10-19T06:50:12;15.02;;;13.63;;
67227;SDS011;54139;42.616;23.748;2023-10-19T06:52:40;13.70;;;12.45;;
67227;SDS011;54139;42.616;23.748;2023-10-19T06:55:06;15.02;;;13.73;;
67227;SDS011;54139;42.616;23.748;2023-10-19T06:57:38;14.48;;;13.43;;
67227;SDS011;54139;42.616;23.748;2023-10-19T07:00:05;14.68;;;13.57;;
67227;SDS011;54139;42.616;23.748;2023-10-19T07:02:39;15.15;;;13.95;;
67227;SDS011;54139;42.616;23.748;2023-10-19T07:05:08;15.27;;;13.80;;
67227;SDS011;54139;42.616;23.748;2023-10-19T07:07:41;13.50;;;12.50;;
67227;SDS011;54139;42.616;23.748;2023-10-19T07:12:35;13.85;;;12.75;;
67227;SDS011;54139;42.616;23.748;2023-10-19T07:15:05;14.75;;;12.88;;
67227;SDS011;54139;42.616;23.748;2023-10-19T07:17:35;14.13;;;13.00;;
67227;SDS011;54139;42.616;23.748;2023-10-19T07:20:03;12.73;;;11.77;;
67227;SDS011;54139;42.616;23.748;2023-10-19T07:22:31;13.73;;;12.37;;
67227;SDS011;54139;42.616;23.748;2023-10-19T07:24:57;13.25;;;12.23;;
67227;SDS011;54139;42.616;23.748;2023-10-19T07:27:23;12.35;;;11.43;;
67227;SDS011;54139;42.616;23.748;2023-10-19T07:29:50;12.32;;;11.38;;
67227;SDS011;54139;42.616;23.748;2023-10-19T07:32:15;12.45;;;11.35;;
67227;SDS011;54139;42.616;23.748;2023-10-19T07:34:42;11.75;;;10.80;;
67227;SDS011;54139;42.616;23.748;2023-10-19T07:37:09;10.73;;;9.93;;
67227;SDS011;54139;42.616;23.748;2023-10-19T07:39:40;10.18;;;9.18;;
67227;SDS011;54139;42.616;23.748;2023-10-19T07:42:17;9.13;;;8.43;;
67227;SDS011;54139;42.616;23.748;2023-10-19T07:44:43;9.02;;;8.32;;
67227;SDS011;54139;42.616;23.748;2023-10-19T07:47:10;9.48;;;8.43;;
67227;SDS011;54139;42.616;23.748;2023-10-19T07:49:37;8.98;;;8.10;;
67227;SDS011;54139;42.616;23.748;2023-10-19T07:52:06;8.48;;;7.63;;
67227;SDS011;54139;42.616;23.748;2023-10-19T07:54:34;7.50;;;7.10;;
67227;SDS011;54139;42.616;23.748;2023-10-19T07:57:00;7.97;;;7.45;;
67227;SDS011;54139;42.616;23.748;2023-10-19T07:59:31;7.50;;;7.00;;
67227;SDS011;54139;42.616;23.748;2023-10-19T08:04:27;7.00;;;6.50;;
67227;SDS011;54139;42.616;23.748;2023-10-19T08:06:53;6.22;;;5.72;;
67227;SDS011;54139;42.616;23.748;2023-10-19T08:09:20;6.47;;;5.97;;
67227;SDS011;54139;42.616;23.748;2023-10-19T08:11:48;5.80;;;5.30;;
67227;SDS011;54139;42.616;23.748;2023-10-19T08:14:14;6.72;;;6.32;;
67227;SDS011;54139;42.616;23.748;2023-10-19T08:16:39;6.85;;;6.35;;
67227;SDS011;54139;42.616;23.748;2023-10-19T08:19:06;7.38;;;6.88;;
67227;SDS011;54139;42.616;23.748;2023-10-19T08:21:32;7.47;;;6.75;;
67227;SDS011;54139;42.616;23.748;2023-10-19T08:23:59;6.30;;;5.70;;
67227;SDS011;54139;42.616;23.748;2023-10-19T08:26:29;6.93;;;6.32;;
67227;SDS011;54139;42.616;23.748;2023-10-19T08:28:55;6.95;;;6.45;;
67227;SDS011;54139;42.616;23.748;2023-10-19T08:31:20;6.63;;;5.82;;
67227;SDS011;54139;42.616;23.748;2023-10-19T08:33:46;6.45;;;6.05;;
67227;SDS011;54139;42.616;23.748;2023-10-19T08:36:16;6.55;;;5.95;;
67227;SDS011;54139;42.616;23.748;2023-10-19T08:38:44;5.85;;;5.30;;
67227;SDS011;54139;42.616;23.748;2023-10-19T08:41:10;6.30;;;5.80;;
67227;SDS011;54139;42.616;23.748;2023-10-19T08:43:36;7.00;;;6.50;;
67227;SDS011;54139;42.616;23.748;2023-10-19T08:46:05;7.18;;;6.57;;
67227;SDS011;54139;42.616;23.748;2023-10-19T08:48:33;7.70;;;7.00;;
67227;SDS011;54139;42.616;23.748;2023-10-19T08:50:59;6.63;;;6.03;;
67227;SDS011;54139;42.616;23.748;2023-10-19T08:53:27;6.13;;;5.45;;
67227;SDS011;54139;42.616;23.748;2023-10-19T08:55:53;6.60;;;6.20;;
67227;SDS011;54139;42.616;23.748;2023-10-19T08:58:20;7.67;;;7.17;;
67227;SDS011;54139;42.616;23.748;2023-10-19T09:00:50;7.40;;;6.70;;
67227;SDS011;54139;42.616;23.748;2023-10-19T09:03:19;8.43;;;6.90;;
67227;SDS011;54139;42.616;23.748;2023-10-19T09:05:44;7.45;;;6.90;;
67227;SDS011;54139;42.616;23.748;2023-10-19T09:08:16;7.85;;;7.35;;
67227;SDS011;54139;42.616;23.748;2023-10-19T09:10:43;8.23;;;7.50;;
67227;SDS011;54139;42.616;23.748;2023-10-19T09:13:13;7.78;;;7.25;;
67227;SDS011;54139;42.616;23.748;2023-10-19T09:15:43;7.72;;;7.18;;
67227;SDS011;54139;42.616;23.748;2023-10-19T09:18:12;8.05;;;7.45;;
67227;SDS011;54139;42.616;23.748;2023-10-19T09:20:39;8.02;;;7.35;;
67227;SDS011;54139;42.616;23.748;2023-10-19T09:23:06;7.57;;;6.90;;
67227;SDS011;54139;42.616;23.748;2023-10-19T09:25:32;6.97;;;6.43;;
67227;SDS011;54139;42.616;23.748;2023-10-19T09:28:00;7.80;;;7.18;;
67227;SDS011;54139;42.616;23.748;2023-10-19T09:30:27;7.43;;;6.93;;
67227;SDS011;54139;42.616;23.748;2023-10-19T09:32:56;8.02;;;7.45;;
67227;SDS011;54139;42.616;23.748;2023-10-19T09:35:22;7.38;;;6.70;;
67227;SDS011;54139;42.616;23.748;2023-10-19T09:37:52;7.78;;;7.18;;
67227;SDS011;54139;42.616;23.748;2023-10-19T09:40:21;6.75;;;6.25;;
67227;SDS011;54139;42.616;23.748;2023-10-19T09:42:49;6.60;;;6.03;;
67227;SDS011;54139;42.616;23.748;2023-10-19T09:45:18;7.05;;;6.38;;
67227;SDS011;54139;42.616;23.748;2023-10-19T09:47:46;6.60;;;6.20;;
67227;SDS011;54139;42.616;23.748;2023-10-19T09:50:14;5.38;;;4.97;;
67227;SDS011;54139;42.616;23.748;2023-10-19T09:52:40;5.32;;;4.93;;
67227;SDS011;54139;42.616;23.748;2023-10-19T09:55:08;6.10;;;5.38;;
67227;SDS011;54139;42.616;23.748;2023-10-19T10:00:22;6.00;;;4.53;;
67227;SDS011;54139;42.616;23.748;2023-10-19T10:02:51;5.00;;;4.50;;
67227;SDS011;54139;42.616;23.748;2023-10-19T10:10:45;5.18;;;4.78;;
67227;SDS011;54139;42.616;23.748;2023-10-19T10:15:49;5.90;;;5.50;;
67227;SDS011;54139;42.616;23.748;2023-10-19T10:18:15;5.60;;;5.20;;
67227;SDS011;54139;42.616;23.748;2023-10-19T10:20:40;5.13;;;4.72;;
67227;SDS011;54139;42.616;23.748;2023-10-19T10:23:19;5.13;;;4.82;;
67227;SDS011;54139;42.616;23.748;2023-10-19T10:25:50;5.57;;;5.07;;
67227;SDS011;54139;42.616;23.748;2023-10-19T10:28:18;5.43;;;5.03;;
67227;SDS011;54139;42.616;23.748;2023-10-19T10:33:39;5.03;;;4.63;;
67227;SDS011;54139;42.616;23.748;2023-10-19T10:36:05;4.90;;;4.53;;
67227;SDS011;54139;42.616;23.748;2023-10-19T10:38:34;4.57;;;4.28;;
67227;SDS011;54139;42.616;23.748;2023-10-19T10:41:02;5.15;;;4.75;;
67227;SDS011;54139;42.616;23.748;2023-10-19T10:43:28;4.75;;;4.35;;
67227;SDS011;54139;42.616;23.748;2023-10-19T10:46:07;4.88;;;4.35;;
67227;SDS011;54139;42.616;23.748;2023-10-19T10:48:32;4.18;;;3.88;;
67227;SDS011;54139;42.616;23.748;2023-10-19T10:50:58;4.80;;;4.50;;
67227;SDS011;54139;42.616;23.748;2023-10-19T10:53:24;7.53;;;5.53;;
67227;SDS011;54139;42.616;23.748;2023-10-19T10:55:57;4.30;;;4.00;;
67227;SDS011;54139;42.616;23.748;2023-10-19T10:58:25;4.63;;;4.22;;
67227;SDS011;54139;42.616;23.748;2023-10-19T11:00:50;4.88;;;4.50;;
67227;SDS011;54139;42.616;23.748;2023-10-19T11:05:47;6.15;;;4.53;;
67227;SDS011;54139;42.616;23.748;2023-10-19T11:08:13;4.97;;;4.60;;
67227;SDS011;54139;42.616;23.748;2023-10-19T11:10:42;4.50;;;4.20;;
67227;SDS011;54139;42.616;23.748;2023-10-19T11:13:10;4.82;;;4.50;;
67227;SDS011;54139;42.616;23.748;2023-10-19T11:15:37;5.60;;;5.10;;
67227;SDS011;54139;42.616;23.748;2023-10-19T11:18:07;4.72;;;4.25;;
67227;SDS011;54139;42.616;23.748;2023-10-19T11:20:32;5.00;;;4.47;;
67227;SDS011;54139;42.616;23.748;2023-10-19T11:22:58;5.10;;;4.63;;
67227;SDS011;54139;42.616;23.748;2023-10-19T11:25:28;4.85;;;4.45;;
67227;SDS011;54139;42.616;23.748;2023-10-19T11:27:58;5.00;;;4.70;;
67227;SDS011;54139;42.616;23.748;2023-10-19T11:30:28;4.75;;;4.20;;
67227;SDS011;54139;42.616;23.748;2023-10-19T11:32:56;5.68;;;4.10;;
67227;SDS011;54139;42.616;23.748;2023-10-19T11:35:26;4.70;;;4.40;;
67227;SDS011;54139;42.616;23.748;2023-10-19T11:37:55;4.80;;;4.35;;
67227;SDS011;54139;42.616;23.748;2023-10-19T11:40:22;5.55;;;5.05;;
67227;SDS011;54139;42.616;23.748;2023-10-19T11:42:51;4.78;;;4.47;;
67227;SDS011;54139;42.616;23.748;2023-10-19T11:45:17;4.15;;;3.75;;
67227;SDS011;54139;42.616;23.748;2023-10-19T11:47:43;4.25;;;3.95;;
67227;SDS011;54139;42.616;23.748;2023-10-19T11:50:10;5.82;;;4.20;;
67227;SDS011;54139;42.616;23.748;2023-10-19T11:52:39;9.60;;;5.10;;
67227;SDS011;54139;42.616;23.748;2023-10-19T11:55:05;4.60;;;4.30;;
67227;SDS011;54139;42.616;23.748;2023-10-19T11:57:31;4.68;;;4.38;;
67227;SDS011;54139;42.616;23.748;2023-10-19T11:59:57;4.78;;;4.32;;
67227;SDS011;54139;42.616;23.748;2023-10-19T12:02:24;4.45;;;4.05;;
67227;SDS011;54139;42.616;23.748;2023-10-19T12:04:50;4.43;;;4.13;;
67227;SDS011;54139;42.616;23.748;2023-10-19T12:07:15;3.65;;;3.45;;
67227;SDS011;54139;42.616;23.748;2023-10-19T12:09:41;3.92;;;3.63;;
67227;SDS011;54139;42.616;23.748;2023-10-19T12:12:07;4.05;;;3.75;;
67227;SDS011;54139;42.616;23.748;2023-10-19T12:14:34;3.83;;;3.60;;
67227;SDS011;54139;42.616;23.748;2023-10-19T12:17:02;4.13;;;3.83;;
67227;SDS011;54139;42.616;23.748;2023-10-19T12:19:31;4.05;;;3.50;;
67227;SDS011;54139;42.616;23.748;2023-10-19T12:21:57;3.67;;;3.38;;
67227;SDS011;54139;42.616;23.748;2023-10-19T12:24:23;3.85;;;3.55;;
67227;SDS011;54139;42.616;23.748;2023-10-19T12:26:49;3.45;;;3.17;;
67227;SDS011;54139;42.616;23.748;2023-10-19T12:29:16;3.63;;;3.33;;
67227;SDS011;54139;42.616;23.748;2023-10-19T12:31:42;4.68;;;3.28;;
67227;SDS011;54139;42.616;23.748;2023-10-19T12:34:08;3.53;;;3.08;;
67227;SDS011;54139;42.616;23.748;2023-10-19T12:36:36;3.55;;;3.25;;
67227;SDS011;54139;42.616;23.748;2023-10-19T12:39:02;3.35;;;2.90;;
67227;SDS011;54139;42.616;23.748;2023-10-19T12:41:30;3.90;;;3.20;;
67227;SDS011;54139;42.616;23.748;2023-10-19T12:43:56;3.40;;;3.20;;
67227;SDS011;54139;42.616;23.748;2023-10-19T12:46:33;3.70;;;3.40;;
67227;SDS011;54139;42.616;23.748;2023-10-19T12:51:39;3.58;;;3.28;;
67227;SDS011;54139;42.616;23.748;2023-10-19T12:54:07;3.42;;;3.22;;
67227;SDS011;54139;42.616;23.748;2023-10-19T12:56:35;3.97;;;3.58;;
67227;SDS011;54139;42.616;23.748;2023-10-19T12:59:00;3.60;;;3.30;;
67227;SDS011;54139;42.616;23.748;2023-10-19T13:01:26;3.88;;;3.58;;
67227;SDS011;54139;42.616;23.748;2023-10-19T13:03:53;3.10;;;2.90;;
67227;SDS011;54139;42.616;23.748;2023-10-19T13:06:18;3.90;;;3.60;;
67227;SDS011;54139;42.616;23.748;2023-10-19T13:08:44;3.30;;;3.10;;
67227;SDS011;54139;42.616;23.748;2023-10-19T13:11:10;3.70;;;3.15;;
67227;SDS011;54139;42.616;23.748;2023-10-19T13:13:39;3.63;;;3.30;;
67227;SDS011;54139;42.616;23.748;2023-10-19T13:16:04;3.25;;;3.05;;
67227;SDS011;54139;42.616;23.748;2023-10-19T13:18:34;3.80;;;3.50;;
67227;SDS011;54139;42.616;23.748;2023-10-19T13:21:01;3.95;;;3.45;;
67227;SDS011;54139;42.616;23.748;2023-10-19T13:23:36;3.58;;;3.30;;
67227;SDS011;54139;42.616;23.748;2023-10-19T13:26:01;4.25;;;3.55;;
67227;SDS011;54139;42.616;23.748;2023-10-19T13:28:33;4.55;;;3.55;;
67227;SDS011;54139;42.616;23.748;2023-10-19T13:30:58;3.15;;;2.85;;
67227;SDS011;54139;42.616;23.748;2023-10-19T13:33:23;3.80;;;3.50;;
67227;SDS011;54139;42.616;23.748;2023-10-19T13:35:49;3.70;;;3.50;;
67227;SDS011;54139;42.616;23.748;2023-10-19T13:38:15;3.40;;;3.20;;
67227;SDS011;54139;42.616;23.748;2023-10-19T13:40:42;3.55;;;3.25;;
67227;SDS011;54139;42.616;23.748;2023-10-19T13:43:08;3.53;;;3.28;;
67227;SDS011;54139;42.616;23.748;2023-10-19T13:45:38;6.32;;;3.97;;
67227;SDS011;54139;42.616;23.748;2023-10-19T13:48:06;4.28;;;3.88;;
67227;SDS011;54139;42.616;23.748;2023-10-19T13:50:32;3.92;;;3.63;;
67227;SDS011;54139;42.616;23.748;2023-10-19T13:52:59;3.70;;;3.40;;
67227;SDS011;54139;42.616;23.748;2023-10-19T13:55:25;3.38;;;3.17;;
67227;SDS011;54139;42.616;23.748;2023-10-19T13:57:52;3.78;;;3.47;;
67227;SDS011;54139;42.616;23.748;2023-10-19T14:00:18;3.63;;;3.38;;
67227;SDS011;54139;42.616;23.748;2023-10-19T14:02:48;4.43;;;4.03;;
67227;SDS011;54139;42.616;23.748;2023-10-19T14:05:14;4.20;;;3.85;;
67227;SDS011;54139;42.616;23.748;2023-10-19T14:07:40;3.83;;;3.53;;
67227;SDS011;54139;42.616;23.748;2023-10-19T14:10:06;4.35;;;4.05;;
67227;SDS011;54139;42.616;23.748;2023-10-19T14:12:33;5.07;;;4.47;;
67227;SDS011;54139;42.616;23.748;2023-10-19T14:14:58;5.07;;;4.72;;
67227;SDS011;54139;42.616;23.748;2023-10-19T14:17:24;4.47;;;4.10;;
67227;SDS011;54139;42.616;23.748;2023-10-19T14:19:50;4.50;;;4.10;;
67227;SDS011;54139;42.616;23.748;2023-10-19T14:22:16;5.25;;;4.50;;
67227;SDS011;54139;42.616;23.748;2023-10-19T14:24:42;5.18;;;4.03;;
67227;SDS011;54139;42.616;23.748;2023-10-19T14:27:08;4.93;;;4.53;;
67227;SDS011;54139;42.616;23.748;2023-10-19T14:29:34;4.68;;;4.15;;
67227;SDS011;54139;42.616;23.748;2023-10-19T14:32:00;4.43;;;4.10;;
67227;SDS011;54139;42.616;23.748;2023-10-19T14:34:25;4.97;;;4.50;;
67227;SDS011;54139;42.616;23.748;2023-10-19T14:36:52;4.90;;;4.28;;
67227;SDS011;54139;42.616;23.748;2023-10-19T14:39:18;4.25;;;3.95;;
67227;SDS011;54139;42.616;23.748;2023-10-19T14:41:45;4.30;;;4.00;;
67227;SDS011;54139;42.616;23.748;2023-10-19T14:44:11;4.28;;;3.97;;
67227;SDS011;54139;42.616;23.748;2023-10-19T14:46:37;4.68;;;4.28;;
67227;SDS011;54139;42.616;23.748;2023-10-19T14:49:02;4.68;;;4.20;;
67227;SDS011;54139;42.616;23.748;2023-10-19T14:51:28;4.28;;;3.97;;
67227;SDS011;54139;42.616;23.748;2023-10-19T14:53:53;4.35;;;4.03;;
67227;SDS011;54139;42.616;23.748;2023-10-19T14:56:19;6.40;;;4.20;;